Time;durP1;ratioP1;P1;durP2;ratioP2;P2;SDS_P1;SDS_P2;PMS_P1;PMS_P2;Temp;Humidity;BMP_temperature;BMP_pressure;BME280_temperature;BME280_humidity;BME280_pressure;Samples;Min_cycle;Max_cycle;Signal;HPM_P1;HPM_P2
2021/12/26 00:02:06;;;;;;;;;50.50;40.25;;;;;3.89;86.32;100169.69;6211488;22;45177;-73
2021/12/26 00:04:33;;;;;;;;;57.25;44.50;;;;;4.12;86.20;100202.00;6184189;22;45304;-74
2021/12/26 00:06:59;;;;;;;;;50.75;42.25;;;;;4.04;86.18;100193.56;6210610;22;45359;-73
2021/12/26 00:09:24;;;;;;;;;67.50;44.75;;;;;4.13;86.68;100201.13;6211178;22;45377;-73
2021/12/26 00:11:50;;;;;;;;;52.50;43.25;;;;;3.97;86.67;100183.31;6211551;22;45495;-73
2021/12/26 00:14:15;;;;;;;;;48.25;40.50;;;;;4.08;86.54;100193.44;6211752;22;45305;-73
2021/12/26 00:16:42;;;;;;;;;50.25;38.75;;;;;4.08;86.71;100192.59;6211506;22;45245;-73
2021/12/26 00:19:08;;;;;;;;;47.25;40.00;;;;;4.09;86.18;100194.31;6211378;22;45387;-73
2021/12/26 00:21:33;;;;;;;;;55.25;41.25;;;;;4.17;86.49;100208.81;6211047;22;45261;-72
2021/12/26 00:23:59;;;;;;;;;50.00;41.75;;;;;4.03;86.55;100189.25;6211278;22;45301;-74
2021/12/26 00:26:25;;;;;;;;;51.50;41.75;;;;;4.08;86.66;100195.19;6183936;22;45290;-74
2021/12/26 00:28:50;;;;;;;;;46.25;40.25;;;;;4.18;86.74;100210.50;6211279;22;46073;-74
2021/12/26 00:31:19;;;;;;;;;45.75;40.00;;;;;4.18;86.32;100196.69;6210638;22;45174;-73
2021/12/26 00:33:46;;;;;;;;;59.00;44.75;;;;;4.16;86.09;100201.91;6211526;22;45288;-73
2021/12/26 00:36:12;;;;;;;;;51.00;42.75;;;;;4.15;86.36;100188.97;6210111;22;45364;-73
2021/12/26 00:38:37;;;;;;;;;62.00;44.75;;;;;4.15;86.56;100181.16;6210601;22;45388;-72
2021/12/26 00:41:03;;;;;;;;;54.00;40.50;;;;;4.04;86.51;100165.84;6211390;22;45221;-72
2021/12/26 00:43:28;;;;;;;;;56.25;42.00;;;;;4.04;86.76;100163.25;6211598;22;45104;-73
2021/12/26 00:45:54;;;;;;;;;37.00;29.75;;;;;4.22;86.43;100184.47;6211484;22;45318;-72
2021/12/26 00:48:20;;;;;;;;;53.00;44.25;;;;;4.04;86.50;100160.66;6213162;22;45331;-71
2021/12/26 00:50:46;;;;;;;;;48.50;41.00;;;;;4.18;86.53;100181.09;6218629;22;45368;-72
2021/12/26 00:53:11;;;;;;;;;48.50;41.00;;;;;4.17;86.40;100190.66;6211768;22;45339;-72
2021/12/26 00:55:37;;;;;;;;;54.00;41.75;;;;;4.00;86.61;100153.84;6210554;22;45155;-72
2021/12/26 00:58:04;;;;;;;;;62.00;42.00;;;;;4.07;86.31;100165.78;6210891;22;45443;-74
2021/12/26 01:00:33;;;;;;;;;62.00;44.75;;;;;4.12;86.32;100178.63;6210213;22;45349;-74
2021/12/26 01:03:02;;;;;;;;;55.75;44.50;;;;;4.14;86.80;100172.53;6211028;22;45336;-75
2021/12/26 01:05:29;;;;;;;;;57.25;46.25;;;;;4.02;86.32;100151.22;6211179;22;45281;-73
2021/12/26 01:07:59;;;;;;;;;47.25;36.75;;;;;4.16;86.94;100178.53;6210575;22;46112;-74
2021/12/26 01:10:38;;;;;;;;;57.25;43.75;;;;;4.15;86.11;100176.81;6210769;22;45174;-73
2021/12/26 01:13:30;;;;;;;;;57.50;43.00;;;;;4.11;86.56;100172.59;6210957;22;45308;-72
2021/12/26 01:15:58;;;;;;;;;49.25;37.50;;;;;3.99;86.68;100157.31;6210204;22;45165;-73
2021/12/26 01:18:26;;;;;;;;;58.50;45.25;;;;;4.10;86.79;100167.44;6212193;22;46084;-73
2021/12/26 01:20:58;;;;;;;;;57.00;42.00;;;;;3.95;86.73;100140.13;6211560;22;45343;-73
2021/12/26 01:23:26;;;;;;;;;54.25;44.50;;;;;4.06;87.33;100158.88;6211940;22;45411;-73
2021/12/26 01:25:51;;;;;;;;;56.25;45.00;;;;;4.13;87.50;100160.44;6212345;22;45307;-74
2021/12/26 01:28:18;;;;;;;;;60.50;45.50;;;;;4.11;87.49;100148.41;6212082;22;45246;-73
2021/12/26 01:30:45;;;;;;;;;55.50;39.75;;;;;4.21;87.48;100154.19;6212418;22;45244;-72
2021/12/26 01:33:13;;;;;;;;;57.50;39.75;;;;;4.18;86.64;100158.59;6211306;22;45356;-72
2021/12/26 01:35:40;;;;;;;;;60.25;44.00;;;;;4.07;86.32;100144.16;6212074;22;45323;-73
2021/12/26 01:38:10;;;;;;;;;51.25;41.25;;;;;4.18;87.20;100163.78;6184523;22;46868;-73
2021/12/26 01:40:38;;;;;;;;;52.00;42.00;;;;;4.19;87.26;100151.63;6211395;22;45258;-73
2021/12/26 01:43:04;;;;;;;;;41.25;38.00;;;;;4.23;87.02;100155.88;6212297;22;45313;-73
2021/12/26 01:45:30;;;;;;;;;57.75;42.25;;;;;4.27;87.34;100160.09;6184618;22;45726;-73
2021/12/26 01:48:00;;;;;;;;;58.75;47.00;;;;;4.25;86.93;100148.91;6184538;22;46936;-74
2021/12/26 01:50:27;;;;;;;;;60.75;48.75;;;;;4.26;87.05;100155.78;6184917;22;45297;-74
2021/12/26 01:52:53;;;;;;;;;57.25;41.75;;;;;4.23;87.01;100131.63;6212062;22;45281;-74
2021/12/26 01:55:25;;;;;;;;;53.75;43.00;;;;;4.26;86.47;100145.41;6212197;22;45324;-74
2021/12/26 01:57:52;;;;;;;;;50.75;42.75;;;;;4.18;86.90;100142.16;6210992;22;45466;-74
2021/12/26 02:00:18;;;;;;;;;49.00;40.00;;;;;4.25;86.82;100142.88;6211314;22;45589;-73
2021/12/26 02:02:44;;;;;;;;;53.25;43.50;;;;;4.23;86.78;100140.31;6211441;22;45272;-75
2021/12/26 02:05:10;;;;;;;;;57.75;45.00;;;;;4.26;87.39;100147.16;6211474;22;45472;-74
2021/12/26 02:07:35;;;;;;;;;54.25;44.75;;;;;4.28;87.09;100141.03;6211496;22;46035;-74
2021/12/26 02:10:01;;;;;;;;;54.25;43.50;;;;;4.17;87.17;100101.50;6211323;22;45302;-74
2021/12/26 02:12:26;;;;;;;;;54.50;43.00;;;;;4.08;86.88;100083.56;6212341;22;45663;-74
2021/12/26 02:14:53;;;;;;;;;58.00;43.00;;;;;4.31;86.15;100121.91;6184750;22;45407;-74
2021/12/26 02:17:19;;;;;;;;;53.00;43.00;;;;;4.25;86.58;100106.50;6212173;22;45388;-74
2021/12/26 02:19:45;;;;;;;;;55.75;45.00;;;;;4.27;86.77;100102.13;6212107;22;45380;-74
2021/12/26 02:22:15;;;;;;;;;49.75;42.00;;;;;4.18;86.77;100087.63;6211624;22;45315;-74
2021/12/26 02:25:10;;;;;;;;;51.25;41.25;;;;;4.28;86.54;100117.66;6184573;22;45349;-73
2021/12/26 02:27:32;;;;;;;;;57.50;43.50;;;;;4.15;85.68;100124.91;6211025;22;46289;-74
2021/12/26 02:30:06;;;;;;;;;52.00;40.25;;;;;4.22;85.84;100148.13;6211468;22;45561;-74
2021/12/26 02:32:31;;;;;;;;;50.50;40.75;;;;;4.14;86.91;100133.59;6184636;22;45322;-72
2021/12/26 02:34:58;;;;;;;;;57.00;43.75;;;;;4.20;86.13;100145.56;6210250;22;45155;-73
2021/12/26 02:37:24;;;;;;;;;54.50;40.75;;;;;4.15;87.04;100135.28;6211802;22;45451;-73
2021/12/26 02:39:50;;;;;;;;;46.75;38.50;;;;;4.12;86.90;100127.59;6215350;22;45319;-72
2021/12/26 02:42:20;;;;;;;;;53.50;43.00;;;;;4.31;86.64;100148.72;6214275;22;45257;-72
2021/12/26 02:44:47;;;;;;;;;44.00;40.75;;;;;4.33;86.54;100144.34;6212897;22;45273;-72
2021/12/26 02:47:14;;;;;;;;;44.25;39.25;;;;;4.15;86.99;100105.88;6212583;22;46060;-72
2021/12/26 02:49:40;;;;;;;;;52.75;40.25;;;;;4.21;86.91;100108.34;6216682;22;45336;-74
2021/12/26 02:52:05;;;;;;;;;55.75;42.00;;;;;4.21;86.56;100105.72;6220350;22;45260;-73
2021/12/26 02:54:30;;;;;;;;;50.00;39.00;;;;;4.29;86.81;100119.34;6212180;22;45225;-72
2021/12/26 02:56:56;;;;;;;;;57.25;43.25;;;;;4.36;86.74;100128.69;6212521;22;45305;-74
2021/12/26 02:59:21;;;;;;;;;51.00;41.50;;;;;4.41;86.95;100135.53;6211927;22;45286;-74
2021/12/26 03:01:47;;;;;;;;;44.75;38.50;;;;;4.27;86.79;100109.91;6212577;22;45347;-73
2021/12/26 03:04:12;;;;;;;;;55.50;42.75;;;;;4.41;86.49;100131.19;6212197;22;45315;-74
2021/12/26 03:09:05;;;;;;;;;56.75;41.25;;;;;4.32;86.61;100110.66;6184867;22;45666;-74
2021/12/26 03:11:31;;;;;;;;;54.75;41.50;;;;;4.14;85.98;100086.84;6211901;22;45228;-74
2021/12/26 03:13:57;;;;;;;;;52.75;39.25;;;;;4.22;86.93;100080.59;6211958;22;45371;-74
2021/12/26 03:16:22;;;;;;;;;48.75;39.00;;;;;4.40;87.03;100105.25;6211872;22;45194;-74
2021/12/26 03:18:47;;;;;;;;;58.75;42.75;;;;;4.31;86.88;100091.59;6211976;22;45250;-74
2021/12/26 03:21:13;;;;;;;;;55.75;42.00;;;;;4.33;86.78;100089.81;6211667;22;45138;-74
2021/12/26 03:23:38;;;;;;;;;59.25;44.00;;;;;4.24;87.32;100071.88;6209935;22;45379;-74
2021/12/26 03:26:06;;;;;;;;;50.00;42.50;;;;;4.30;86.61;100091.63;6211865;22;46030;-73
2021/12/26 03:28:32;;;;;;;;;45.00;39.25;;;;;4.44;86.73;100110.31;6211790;22;45218;-73
2021/12/26 03:30:59;;;;;;;;;58.50;45.25;;;;;4.37;86.66;100101.84;6211838;22;45326;-74
2021/12/26 03:33:26;;;;;;;;;50.75;42.25;;;;;4.46;87.08;100110.25;6211843;22;45333;-74
2021/12/26 03:35:52;;;;;;;;;55.50;41.00;;;;;4.48;87.14;100106.75;6210422;22;46100;-74
2021/12/26 03:38:19;;;;;;;;;48.25;42.75;;;;;4.43;86.56;100102.56;6211430;22;45273;-75
2021/12/26 03:40:46;;;;;;;;;54.75;42.00;;;;;4.48;86.62;100103.31;6184399;22;45313;-74
2021/12/26 03:43:12;;;;;;;;;52.00;43.75;;;;;4.31;87.10;100076.00;6184324;22;45491;-73
2021/12/26 03:45:38;;;;;;;;;47.25;40.25;;;;;4.41;86.94;100080.97;6210803;22;46995;-74
2021/12/26 03:48:05;;;;;;;;;48.75;39.75;;;;;4.56;86.52;100104.78;6211499;22;45348;-72
2021/12/26 03:50:31;;;;;;;;;53.25;40.50;;;;;4.55;86.65;100104.84;6211688;22;45372;-74
2021/12/26 03:52:57;;;;;;;;;38.25;35.25;;;;;4.56;87.12;100099.56;6211761;22;45251;-73
2021/12/26 03:55:25;;;;;;;;;54.00;41.00;;;;;4.48;86.78;100078.16;6211017;22;46342;-74
2021/12/26 03:57:51;;;;;;;;;49.75;40.75;;;;;4.56;87.15;100089.19;6210724;22;45308;-74
2021/12/26 04:00:17;;;;;;;;;50.00;40.25;;;;;4.56;86.97;100089.19;6211494;22;45409;-74
2021/12/26 04:02:44;;;;;;;;;47.75;39.50;;;;;4.37;87.41;100055.09;6211727;22;45182;-74
2021/12/26 04:05:12;;;;;;;;;47.00;39.75;;;;;4.60;87.17;100091.72;6211224;22;45264;-74
2021/12/26 04:07:38;;;;;;;;;50.75;35.25;;;;;4.45;87.06;100054.03;6183968;22;46374;-74
2021/12/26 04:10:05;;;;;;;;;58.50;41.75;;;;;4.62;87.34;100080.41;6211290;22;45396;-73
2021/12/26 04:12:35;;;;;;;;;51.75;41.50;;;;;4.49;87.04;100048.69;6210877;22;45376;-73
2021/12/26 04:15:07;;;;;;;;;54.75;38.00;;;;;4.62;87.02;100072.59;6211357;22;45155;-73
2021/12/26 04:17:32;;;;;;;;;47.25;38.50;;;;;4.62;86.89;100070.00;6184320;22;45943;-73
2021/12/26 04:19:58;;;;;;;;;44.75;37.75;;;;;4.42;87.00;100046.31;6211216;22;45539;-74
2021/12/26 04:22:23;;;;;;;;;52.00;36.75;;;;;4.59;86.74;100066.63;6184951;22;45363;-74
2021/12/26 04:24:49;;;;;;;;;46.50;38.00;;;;;4.56;87.29;100068.41;6184081;22;46891;-75
2021/12/26 04:27:14;;;;;;;;;42.75;36.25;;;;;4.49;86.58;100063.44;6211667;22;45238;-74
2021/12/26 04:29:40;;;;;;;;;49.75;43.25;;;;;4.39;87.47;100044.66;6211673;22;45246;-74
2021/12/26 04:32:06;;;;;;;;;54.50;40.50;;;;;4.58;87.50;100073.56;6211635;22;45209;-73
2021/12/26 04:34:31;;;;;;;;;50.25;41.00;;;;;4.52;87.29;100059.00;6211311;22;46387;-74
2021/12/26 04:36:57;;;;;;;;;56.25;40.50;;;;;4.59;87.46;100067.47;6212932;22;45282;-74
2021/12/26 04:39:22;;;;;;;;;59.50;45.75;;;;;4.51;87.28;100054.72;6212124;22;45147;-74
2021/12/26 04:41:48;;;;;;;;;52.50;38.50;;;;;4.60;87.66;100069.19;6211072;22;45462;-74
2021/12/26 04:44:13;;;;;;;;;49.50;39.50;;;;;4.61;87.00;100064.84;6210839;22;46526;-74
2021/12/26 04:46:39;;;;;;;;;42.75;39.75;;;;;4.36;86.51;100026.56;6211562;22;45302;-74
2021/12/26 04:49:04;;;;;;;;;48.25;39.00;;;;;4.56;87.57;100058.00;6213319;22;45365;-74
2021/12/26 04:51:30;;;;;;;;;52.50;41.50;;;;;4.57;87.66;100051.94;6213651;22;45332;-74
2021/12/26 04:53:55;;;;;;;;;52.75;41.75;;;;;4.61;87.24;100059.66;6188596;22;46027;-74
2021/12/26 04:56:21;;;;;;;;;55.75;41.50;;;;;4.49;86.83;100051.28;6213944;22;45284;-73
2021/12/26 04:58:47;;;;;;;;;47.50;42.25;;;;;4.52;87.26;100058.16;6212207;22;45391;-73
2021/12/26 05:01:12;;;;;;;;;42.75;32.00;;;;;4.43;87.54;100042.81;6185772;22;45282;-75
2021/12/26 05:03:40;;;;;;;;;54.50;41.00;;;;;4.48;87.93;100046.16;6185008;22;45955;-73
2021/12/26 05:06:05;;;;;;;;;55.00;40.75;;;;;4.46;87.23;100048.78;6212872;22;45157;-74
2021/12/26 05:08:31;;;;;;;;;55.50;44.25;;;;;4.50;88.06;100055.59;6212022;22;45229;-75
2021/12/26 05:10:56;;;;;;;;;48.75;41.00;;;;;4.52;87.10;100065.94;6184747;22;45982;-74
2021/12/26 05:13:22;;;;;;;;;50.75;40.75;;;;;4.50;87.82;100060.78;6212365;22;45979;-73
2021/12/26 05:15:48;;;;;;;;;55.00;41.75;;;;;4.50;87.54;100063.38;6212322;22;45391;-74
2021/12/26 05:18:14;;;;;;;;;47.00;39.75;;;;;4.37;87.73;100034.31;6184905;22;45422;-73
2021/12/26 05:20:40;;;;;;;;;48.50;41.25;;;;;4.53;88.65;100060.72;6185152;22;45832;-74
2021/12/26 05:23:05;;;;;;;;;47.00;38.00;;;;;4.54;88.64;100049.41;6184855;22;45841;-73
2021/12/26 05:25:31;;;;;;;;;56.00;44.25;;;;;4.60;88.69;100045.81;6210645;22;45268;-73
2021/12/26 05:27:57;;;;;;;;;55.50;43.75;;;;;4.63;88.12;100052.66;6212777;22;44706;-73
2021/12/26 05:30:23;;;;;;;;;;;;;;;4.67;88.93;100055.13;6215854;22;45372;-74
2021/12/26 05:32:48;;;;;;;;;;;;;;;4.68;89.34;100043.81;6215825;22;45287;-74
2021/12/26 05:35:16;;;;;;;;;51.75;42.25;;;;;4.68;88.57;100046.44;6212576;22;45237;-74
2021/12/26 05:37:41;;;;;;;;;56.25;45.75;;;;;4.68;88.68;100040.38;6213209;22;45164;-74
2021/12/26 05:40:09;;;;;;;;;51.00;42.00;;;;;4.67;88.52;100036.94;6211734;22;45300;-74
2021/12/26 05:42:35;;;;;;;;;;;;;;;4.71;89.23;100029.91;6215593;22;46081;-74
2021/12/26 05:45:00;;;;;;;;;50.75;41.75;;;;;4.62;88.63;100019.75;6212286;22;45353;-74
2021/12/26 05:47:26;;;;;;;;;;;;;;;4.72;89.48;100022.03;6215330;22;45332;-74
2021/12/26 05:49:52;;;;;;;;;57.00;44.50;;;;;4.70;88.85;100023.84;6212560;22;45386;-74
2021/12/26 05:52:18;;;;;;;;;47.75;41.00;;;;;4.68;88.68;100024.78;6212292;22;46397;-74
2021/12/26 05:54:45;;;;;;;;;56.50;44.00;;;;;4.72;88.68;100024.63;6211108;22;45301;-74
2021/12/26 05:57:10;;;;;;;;;50.50;40.75;;;;;4.76;88.43;100021.09;6212252;22;45298;-75
2021/12/26 05:59:36;;;;;;;;;47.75;39.25;;;;;4.81;88.83;100020.09;6211794;22;45249;-74
2021/12/26 06:02:02;;;;;;;;;56.75;43.00;;;;;4.61;88.25;99985.13;6212269;22;46216;-74
2021/12/26 06:04:28;;;;;;;;;54.50;42.25;;;;;4.75;88.57;100008.13;6184394;22;45267;-74
2021/12/26 06:06:54;;;;;;;;;54.00;40.75;;;;;4.79;88.43;100007.13;6212325;22;45352;-75
2021/12/26 06:09:19;;;;;;;;;53.00;43.50;;;;;4.88;88.62;100019.00;6211778;22;45437;-75
2021/12/26 06:11:45;;;;;;;;;51.50;39.75;;;;;4.90;88.55;100018.06;6209827;22;47145;-75
2021/12/26 06:14:10;;;;;;;;;58.75;43.50;;;;;4.84;88.29;100005.25;6212012;22;45287;-74
2021/12/26 06:16:36;;;;;;;;;57.75;45.25;;;;;4.92;88.51;100016.28;6212368;22;45395;-74
2021/12/26 06:19:01;;;;;;;;;58.50;44.75;;;;;4.89;87.94;100020.72;6212156;22;45360;-74
2021/12/26 06:21:26;;;;;;;;;57.75;44.25;;;;;4.89;88.14;100013.75;6211332;22;46957;-74
2021/12/26 06:23:52;;;;;;;;;48.50;41.00;;;;;4.89;87.83;100005.97;6211971;22;45265;-75
2021/12/26 06:26:19;;;;;;;;;56.00;41.75;;;;;4.72;88.07;99980.47;6212204;22;45302;-75
2021/12/26 06:28:44;;;;;;;;;64.25;40.75;;;;;4.83;88.22;99987.97;6212244;22;45357;-74
2021/12/26 06:31:11;;;;;;;;;46.25;41.00;;;;;4.89;88.64;100002.53;6212125;22;45270;-74
2021/12/26 06:33:36;;;;;;;;;50.75;40.50;;;;;4.81;87.89;99984.53;6211974;22;45174;-75
2021/12/26 06:36:02;;;;;;;;;55.25;37.75;;;;;4.92;87.97;100003.28;6212033;22;45262;-74
2021/12/26 06:38:27;;;;;;;;;57.50;46.50;;;;;4.90;88.57;99999.88;6210583;22;45333;-74
2021/12/26 06:40:53;;;;;;;;;57.25;45.00;;;;;4.91;88.32;100000.72;6211192;22;46047;-74
2021/12/26 06:43:18;;;;;;;;;54.00;40.25;;;;;4.91;88.53;99998.97;6211779;22;45149;-75
2021/12/26 06:45:44;;;;;;;;;51.75;43.00;;;;;4.83;88.19;99990.56;6212532;22;46102;-74
2021/12/26 06:48:09;;;;;;;;;62.25;47.00;;;;;4.84;88.26;99999.22;6212797;22;45235;-74
2021/12/26 06:50:36;;;;;;;;;60.50;44.50;;;;;4.82;88.22;99999.25;6217718;22;46090;-75
2021/12/26 06:53:02;;;;;;;;;49.50;41.75;;;;;4.87;88.37;100001.72;6220444;22;45282;-74
2021/12/26 06:55:27;;;;;;;;;50.25;39.50;;;;;4.82;87.93;99999.25;6184934;22;45348;-74
2021/12/26 06:57:53;;;;;;;;;53.25;45.25;;;;;4.75;88.38;99990.78;6211733;22;45337;-75
2021/12/26 07:00:19;;;;;;;;;50.50;40.25;;;;;4.64;88.28;99960.81;6211897;22;45928;-74
2021/12/26 07:02:45;;;;;;;;;62.25;45.50;;;;;4.86;89.08;100003.44;6211827;22;45305;-74
2021/12/26 07:05:14;;;;;;;;;59.75;44.25;;;;;4.89;88.90;100002.53;6212000;22;45244;-73
2021/12/26 07:07:41;;;;;;;;;55.75;43.50;;;;;4.88;88.74;100000.81;6211870;22;45325;-74
2021/12/26 07:10:07;;;;;;;;;60.25;43.75;;;;;4.90;88.81;100005.06;6211582;22;45347;-73
2021/12/26 07:12:33;;;;;;;;;58.67;43.33;;;;;4.57;88.45;99953.19;6211615;22;45414;-73
2021/12/26 07:14:58;;;;;;;;;61.00;45.50;;;;;4.79;88.63;99983.75;6212440;22;45311;-73
2021/12/26 07:17:23;;;;;;;;;56.75;44.00;;;;;4.88;88.65;99999.03;6212530;22;45320;-72
2021/12/26 07:19:49;;;;;;;;;52.50;42.75;;;;;4.76;88.81;99963.03;6211597;22;46259;-72
2021/12/26 07:22:14;;;;;;;;;54.25;42.25;;;;;4.93;88.16;99991.13;6183872;22;45273;-73
2021/12/26 07:24:44;;;;;;;;;56.25;41.50;;;;;4.93;88.70;99993.72;6211987;22;45289;-72
2021/12/26 07:27:13;;;;;;;;;54.75;44.25;;;;;4.94;88.64;99993.69;6211278;22;45448;-69
2021/12/26 07:29:39;;;;;;;;;50.00;41.00;;;;;4.90;88.05;99992.09;6211282;22;45445;-72
2021/12/26 07:32:07;;;;;;;;;51.75;42.00;;;;;4.94;88.22;99991.09;6210638;22;45275;-72
2021/12/26 07:34:33;;;;;;;;;27.75;23.00;;;;;4.93;88.45;99991.97;6211779;22;45172;-72
2021/12/26 07:36:59;;;;;;;;;57.75;42.25;;;;;4.94;88.15;99991.09;6209817;22;45325;-71
2021/12/26 07:39:24;;;;;;;;;56.25;41.25;;;;;4.96;88.92;99991.03;6210413;22;46045;-73
2021/12/26 07:41:49;;;;;;;;;49.00;40.50;;;;;5.02;89.14;99990.84;6211576;22;45368;-72
2021/12/26 07:44:15;;;;;;;;;60.00;44.75;;;;;5.03;88.87;99982.16;6211418;22;45217;-71
2021/12/26 07:46:40;;;;;;;;;;;;;;;5.09;89.63;99983.69;6215040;22;45336;-74
2021/12/26 07:49:05;;;;;;;;;51.75;42.50;;;;;5.08;88.86;99984.59;6184268;22;48242;-70
2021/12/26 07:51:31;;;;;;;;;62.00;45.25;;;;;5.05;88.99;99987.31;6211926;22;45764;-71
2021/12/26 07:54:01;;;;;;;;;54.75;42.50;;;;;5.08;88.79;99985.47;6211977;22;45593;-72
2021/12/26 07:56:28;;;;;;;;;55.75;44.75;;;;;5.09;88.60;99992.34;6211622;22;45305;-72
2021/12/26 07:58:53;;;;;;;;;57.25;47.50;;;;;5.08;88.91;99976.78;6183565;22;46139;-70
2021/12/26 08:01:19;;;;;;;;;50.50;41.50;;;;;5.10;88.45;99978.47;6211587;22;45403;-72
2021/12/26 08:03:45;;;;;;;;;66.50;49.50;;;;;5.18;88.92;99987.78;6209427;22;45313;-71
2021/12/26 08:06:16;;;;;;;;;61.00;48.75;;;;;5.12;88.90;99975.81;6211031;22;45274;-72
2021/12/26 08:08:42;;;;;;;;;53.00;42.25;;;;;5.21;88.91;99993.72;6210204;22;45342;-73
2021/12/26 08:11:07;;;;;;;;;51.50;43.25;;;;;5.25;89.32;99984.91;6211201;22;45386;-72
2021/12/26 08:13:33;;;;;;;;;57.00;41.00;;;;;5.31;89.14;99995.13;6211608;22;45161;-71
2021/12/26 08:15:58;;;;;;;;;39.00;38.00;;;;;5.33;89.45;100000.28;6211005;22;45182;-71
2021/12/26 08:18:23;;;;;;;;;57.00;46.25;;;;;5.36;88.95;100007.97;6211314;22;46266;-71
2021/12/26 08:20:49;;;;;;;;;47.00;41.00;;;;;5.29;88.63;99985.66;6211536;22;45340;-71
2021/12/26 08:23:14;;;;;;;;;58.25;44.75;;;;;5.41;88.76;100007.84;6184144;22;45275;-72
2021/12/26 08:25:40;;;;;;;;;63.50;46.25;;;;;5.43;89.28;99999.06;6211271;22;45325;-71
2021/12/26 08:28:06;;;;;;;;;59.00;45.50;;;;;5.32;88.75;99977.78;6183208;22;47178;-72
2021/12/26 08:30:34;;;;;;;;;58.75;45.25;;;;;5.47;88.89;99994.63;6211701;22;45229;-72
2021/12/26 08:33:04;;;;;;;;;53.75;40.00;;;;;5.50;88.77;99999.72;6210958;22;45306;-71
2021/12/26 08:35:30;;;;;;;;;61.00;44.75;;;;;5.45;88.83;99989.47;6211409;22;45352;-72
2021/12/26 08:37:55;;;;;;;;;53.25;41.75;;;;;5.52;89.14;99992.72;6210602;22;46868;-71
2021/12/26 08:40:21;;;;;;;;;58.75;44.00;;;;;5.62;89.37;99998.50;6211241;22;45411;-72
2021/12/26 08:42:46;;;;;;;;;59.25;45.00;;;;;5.64;88.78;100001.88;6211256;22;45292;-72
2021/12/26 08:45:12;;;;;;;;;56.50;41.25;;;;;5.65;88.94;100000.97;6211384;22;45243;-71
2021/12/26 08:47:38;;;;;;;;;65.25;44.75;;;;;5.66;88.79;100000.09;6210678;22;47420;-71
2021/12/26 08:50:04;;;;;;;;;57.00;42.75;;;;;5.70;89.86;99997.34;6213670;22;45345;-71
2021/12/26 08:52:30;;;;;;;;;58.00;43.50;;;;;5.59;89.38;99972.56;6214490;22;45361;-72
2021/12/26 08:54:55;;;;;;;;;61.50;47.25;;;;;5.70;89.81;99988.66;6211342;22;45324;-71
2021/12/26 08:57:21;;;;;;;;;54.50;44.00;;;;;5.76;90.02;100003.25;6210948;22;45505;-71
2021/12/26 08:59:46;;;;;;;;;60.00;44.50;;;;;5.78;89.82;100001.44;6210604;22;45269;-72
2021/12/26 09:02:11;;;;;;;;;56.00;45.00;;;;;5.79;90.69;99997.91;6211141;22;45163;-71
2021/12/26 09:04:39;;;;;;;;;54.00;41.75;;;;;5.82;89.96;100000.41;6211169;22;45241;-71
2021/12/26 09:07:06;;;;;;;;;56.25;41.25;;;;;5.83;90.40;100002.97;6210135;22;46018;-70
2021/12/26 09:09:32;;;;;;;;;49.25;42.00;;;;;5.75;90.52;99984.16;6210853;22;45261;-72
2021/12/26 09:11:58;;;;;;;;;55.00;44.00;;;;;5.89;90.95;100005.34;6211070;22;45351;-72
2021/12/26 09:14:25;;;;;;;;;51.00;38.25;;;;;5.89;90.64;100002.75;6210263;22;45265;-72
2021/12/26 09:16:50;;;;;;;;;53.25;42.50;;;;;5.79;91.19;99977.97;6210745;22;46028;-71
2021/12/26 09:19:16;;;;;;;;;47.25;31.50;;;;;5.95;90.59;99998.25;6210305;22;45355;-72
2021/12/26 09:21:41;;;;;;;;;56.25;44.25;;;;;6.00;90.73;100001.56;6210311;22;45182;-73
2021/12/26 09:24:07;;;;;;;;;54.00;41.50;;;;;5.98;90.40;99992.97;6210439;22;45399;-71
2021/12/26 09:26:32;;;;;;;;;57.75;42.75;;;;;6.06;90.97;99997.00;6183213;22;47021;-70
2021/12/26 09:28:59;;;;;;;;;50.25;40.00;;;;;6.12;91.33;99995.09;6210540;22;45225;-72
2021/12/26 09:31:24;;;;;;;;;48.50;41.25;;;;;6.16;90.85;99994.91;6210368;22;45364;-70
2021/12/26 09:33:50;;;;;;;;;75.00;57.25;;;;;6.18;90.82;100000.94;6208117;22;45828;-73
2021/12/26 09:36:17;;;;;;;;;77.25;55.25;;;;;6.23;91.59;99998.16;6210065;22;45956;-72
2021/12/26 09:38:42;;;;;;;;;48.50;39.25;;;;;6.19;91.11;99991.38;6211722;22;45423;-71
2021/12/26 09:41:09;;;;;;;;;55.50;43.00;;;;;6.28;91.26;100007.50;6211767;22;45289;-72
2021/12/26 09:43:34;;;;;;;;;47.75;37.75;;;;;6.37;91.91;100014.13;6185006;22;45641;-71
2021/12/26 09:45:59;;;;;;;;;49.75;39.50;;;;;6.40;91.17;99994.97;6211543;22;45955;-72
2021/12/26 09:48:26;;;;;;;;;46.50;39.00;;;;;6.48;91.01;99998.13;6184802;22;45731;-72
2021/12/26 09:50:51;;;;;;;;;44.25;35.75;;;;;6.56;90.72;99998.69;6211914;22;45320;-72
2021/12/26 09:53:17;;;;;;;;;40.25;34.75;;;;;6.60;90.85;100009.84;6184673;22;45320;-71
2021/12/26 09:55:42;;;;;;;;;47.75;37.75;;;;;6.66;91.10;100007.00;6212381;22;45303;-72
2021/12/26 09:58:08;;;;;;;;;36.75;33.75;;;;;6.72;91.16;100003.34;6211230;22;45407;-71
2021/12/26 10:00:39;;;;;;;;;40.00;33.75;;;;;6.79;91.03;100003.03;6212314;22;45086;-71
2021/12/26 10:03:28;;;;;;;;;42.25;34.25;;;;;6.88;90.85;99998.41;6212229;22;45304;-71
2021/12/26 10:05:54;;;;;;;;;30.33;28.00;;;;;6.90;90.40;99997.41;6211946;22;45349;-71
2021/12/26 10:08:19;;;;;;;;;38.33;35.33;;;;;6.92;90.60;99998.19;6211787;22;45290;-72
2021/12/26 10:11:11;;;;;;;;;42.33;36.67;;;;;6.96;90.93;99997.16;6212293;22;45428;-70
2021/12/26 10:13:44;;;;;;;;;39.33;31.67;;;;;7.04;90.57;99991.66;6211204;22;45372;-71
2021/12/26 10:16:10;;;;;;;;;33.33;30.67;;;;;7.02;90.60;99994.34;6211750;22;45284;-71
2021/12/26 10:18:41;;;;;;;;;31.00;27.33;;;;;7.04;90.13;99984.69;6211970;22;45327;-70
2021/12/26 10:21:31;;;;;;;;;35.00;31.33;;;;;7.12;90.95;99986.97;6212243;22;45287;-73
2021/12/26 10:24:03;;;;;;;;;43.00;35.00;;;;;7.14;90.15;99985.19;6211780;22;45158;-72
2021/12/26 10:26:32;;;;;;;;;42.67;35.33;;;;;7.15;89.57;99980.81;6211491;22;47203;-75
2021/12/26 10:29:06;;;;;;;;;39.00;32.50;;;;;7.21;90.57;99984.03;6211890;22;45364;-72
2021/12/26 10:31:32;;;;;;;;;39.25;35.50;;;;;7.11;89.76;99961.81;6212168;22;45317;-72
2021/12/26 10:33:58;;;;;;;;;38.67;34.00;;;;;7.24;90.15;99972.59;6211134;22;45388;-70
2021/12/26 10:36:23;;;;;;;;;37.67;31.00;;;;;7.20;90.31;99953.63;6211847;22;45999;-72
2021/12/26 10:39:17;;;;;;;;;47.00;35.00;;;;;7.39;90.24;99964.16;6212062;22;45221;-72
2021/12/26 10:41:46;;;;;;;;;42.50;34.25;;;;;7.43;89.36;99965.72;6185091;22;45241;-72
2021/12/26 10:44:28;;;;;;;;;37.67;34.33;;;;;7.50;90.13;99960.28;6211448;22;45468;-72
2021/12/26 10:47:00;;;;;;;;;40.75;37.50;;;;;7.50;89.52;99955.06;6211947;22;46220;-72
2021/12/26 10:49:29;;;;;;;;;41.00;33.50;;;;;7.54;89.97;99956.63;6214000;22;45329;-71
2021/12/26 10:51:54;;;;;;;;;41.50;36.00;;;;;7.40;89.96;99931.91;6217287;22;45466;-73
2021/12/26 10:54:25;;;;;;;;;38.67;27.33;;;;;7.57;89.97;99951.28;6211796;22;45353;-70
2021/12/26 10:57:03;;;;;;;;;45.00;32.00;;;;;7.58;90.64;99951.19;6212101;22;46096;-71
2021/12/26 10:59:28;;;;;;;;;33.50;29.00;;;;;7.58;90.36;99943.34;6211062;22;45233;-71
2021/12/26 11:01:56;;;;;;;;;36.00;32.00;;;;;7.54;90.42;99931.34;6211979;22;45320;-71
2021/12/26 11:04:25;;;;;;;;;33.67;33.00;;;;;7.74;89.48;99933.09;6211801;22;45388;-71
2021/12/26 11:06:58;;;;;;;;;35.33;29.67;;;;;7.77;89.92;99939.97;6211862;22;45999;-70
2021/12/26 11:09:24;;;;;;;;;39.67;33.33;;;;;7.81;90.29;99946.75;6211877;22;45368;-71
2021/12/26 11:12:04;;;;;;;;;34.00;28.33;;;;;7.80;89.91;99926.78;6212071;22;45551;-71
2021/12/26 11:14:30;;;;;;;;;31.00;25.00;;;;;7.81;89.76;99937.16;6211909;22;45458;-72
2021/12/26 11:16:56;;;;;;;;;31.00;29.00;;;;;7.87;90.40;99937.78;6211762;22;46171;-72
2021/12/26 11:19:45;;;;;;;;;30.33;29.33;;;;;7.94;90.53;99936.63;6211254;22;45174;-72
2021/12/26 11:22:10;;;;;;;;;30.33;26.67;;;;;7.89;90.28;99917.72;6212071;22;45228;-72
2021/12/26 11:24:37;;;;;;;;;28.67;27.00;;;;;7.84;90.15;99917.06;6212452;22;45253;-72